METAR

METAR LDZA 181900Z 06003KT 010V120 9999 -RA OVC023 02/M01 Q1018 NOSIG =
METAR LDSP 181900Z 01009KT CAVOK 07/M05 Q1011 NOSIG=
METAR LDDU 181900Z 02016KT 350V060 CAVOK 10/M01 Q1009 NOSIG =
METAR LDZD 181900Z 13004KT CAVOK 03/M03 Q1013 NOSIG =
METAR LDPL 181900Z 04007KT 9999 FEW033 04/M01 Q1014 NOSIG=
METAR LDOS 181900Z VRB02KT 9999 -RA SCT013 OVC030 02/01 Q1018
R11/1///94=
METAR LDRI 181900Z 24006KT 9999 FEW033 06/M03 Q1014=

TAF

TAF LDZA 181725Z 1818/1918 05005KT 9999 OVC030
                 TX03/1913Z TN00/1904Z
           TEMPO 1818/1912 4000 -SN BKN008=
TAF LDSP 181725Z 1818/1918 03009KT CAVOK
                 TX12/1913Z TN04/1905Z
           BECMG 1910/1912 11010KT=
TAF LDDU 181725Z 1818/1918 02012KT CAVOK
                 TX13/1912Z TN07/1906Z
           BECMG 1909/1911 12012KT=
TAF LDZD 181725Z 1818/1918 06008KT CAVOK
                 TX11/1912Z TN00/1905Z
           BECMG 1907/1909 12010KT=
TAF LDPL 181725Z 1818/1918 06008KT CAVOK
                 TX09/1913Z TN03/1904Z=
TAF LDOS 181725Z 1818/1918 06008KT 9999 OVC030
                 TX03/1913Z TN00/1904Z
           TEMPO 1818/1909 4000 -SN BR BKN005 OVC025=
TAF LDRI 181725Z 1818/1918 04015KT 9999 FEW040
                 TX08/1913Z TN03/1904Z
           TEMPO 1818/1918 VRB10KT
           TEMPO 1818/1821 04018G28KT
           BECMG 1821/1823 06010KT=

SIGMET

AIRMET

LDZO AIRMET 18 VALID 181900/182200 LDZA-
LDZO ZAGREB FIR SFC VIS 2000M BR SN OBS WI N4630 E01625 - N4554
E01851 - N4512 E01924 - N4453 E01856 - N4404 E01612 - N4528 E01403 -
N4630 E01625 STNR NC=
LDZO AIRMET 19 VALID 181900/182200 LDZA-
LDZO ZAGREB FIR MOD TURB FCST WI N4406 E01600 - N4401 E01433 - N4517
E01300 - N4533 E01322 - N4539 E01437 - N4406 E01600 SFC/6000FT STNR
NC=
LDZO AIRMET 20 VALID 181900/182200 LDZA-
LDZO ZAGREB FIR MT OBSC OBS WI N4629 E01623 - N4525 E01811 - N4406
E01621 - N4413 E01535 - N4504 E01453 - N4527 E01418 - N4629 E01623
ABV 2000FT STNR NC=
LDZO AIRMET 21 VALID 181900/182200 LDZA-
LDZO ZAGREB FIR MOD ICE FCST WI N4513 E01927 - N4452 E01854 - N4409
E01546 - N4440 E01458 - N4540 E01431 - N4631 E01623 - N4554 E01852 -
N4513 E01927 ABV 2000FT STNR NC=

Remark

Ukoliko se brzina i smjer vjetra ne mogu odrediti zbog privremenog kvara sustava/indikatora,
informacija o vjetru u METAR izvješću bit će prikazana kao "/////KT".

 

Disclaimer

 

In case of temporary system/sensor failure, wind speed and direction data will be represented as "/////KT" in METAR report.

 

         

      Politika MET podataka